Time;durP1;ratioP1;P1;durP2;ratioP2;P2;SDS_P1;SDS_P2;PMS_P1;PMS_P2;Temp;Humidity;BMP_temperature;BMP_pressure;BME280_temperature;BME280_humidity;BME280_pressure;Samples;Min_cycle;Max_cycle;Signal;HPM_P1;HPM_P2
2022/11/27 00:01:11;;;;;;;9.00;7.00;;;;;;;15.60;49.88;94502.41;5048348;28;20476;-83
2022/11/27 00:03:37;;;;;;;9.10;7.50;;;;;;;15.60;49.64;94510.59;5023217;28;20051;-82
2022/11/27 00:06:03;;;;;;;8.73;6.68;;;;;;;15.59;49.63;94501.66;5044384;28;20033;-84
2022/11/27 00:08:28;;;;;;;9.07;7.55;;;;;;;15.59;49.75;94501.66;5045324;28;20272;-82
2022/11/27 00:10:53;;;;;;;8.27;6.60;;;;;;;15.58;49.96;94497.44;5048945;28;20442;-82
2022/11/27 00:13:19;;;;;;;8.57;7.65;;;;;;;15.57;49.78;94495.94;5030518;28;20040;-83
2022/11/27 00:15:45;;;;;;;9.45;7.80;;;;;;;15.56;50.04;94502.63;5048202;28;20036;-84
2022/11/27 00:18:11;;;;;;;8.20;6.65;;;;;;;15.61;49.84;94496.50;5044830;28;20029;-83
2022/11/27 00:20:36;;;;;;;11.32;8.30;;;;;;;15.59;49.65;94484.56;5008774;28;20075;-83
2022/11/27 00:23:02;;;;;;;10.40;7.75;;;;;;;15.61;49.65;94482.13;5017169;28;20033;-83
2022/11/27 00:25:27;;;;;;;10.05;7.03;;;;;;;15.61;49.86;94490.28;5023716;28;20050;-83
2022/11/27 00:27:52;;;;;;;8.15;6.57;;;;;;;15.54;50.02;94491.38;5036448;28;20037;-82
2022/11/27 00:30:18;;;;;;;8.73;6.60;;;;;;;15.56;49.72;94480.06;5008725;28;20068;-83
2022/11/27 00:32:43;;;;;;;7.07;6.13;;;;;;;15.54;49.76;94480.50;5006937;28;20037;-84
2022/11/27 00:35:09;;;;;;;9.13;6.93;;;;;;;15.52;49.77;94474.75;5024449;28;20065;-83
2022/11/27 00:37:34;;;;;;;8.70;7.15;;;;;;;15.52;49.88;94472.03;5004950;28;20037;-82
2022/11/27 00:39:59;;;;;;;7.97;6.35;;;;;;;15.54;49.96;94472.31;5061670;28;20047;-83
2022/11/27 00:42:25;;;;;;;8.70;7.80;;;;;;;15.54;50.07;94471.56;5047612;28;20032;-83
2022/11/27 00:44:50;;;;;;;8.70;7.15;;;;;;;15.53;50.00;94467.31;5046992;28;20040;-83
2022/11/27 00:47:16;;;;;;;8.13;6.70;;;;;;;15.52;50.08;94469.31;5030701;28;20419;-83
2022/11/27 00:49:41;;;;;;;8.82;6.70;;;;;;;15.56;50.14;94469.91;5014530;28;20041;-83
2022/11/27 00:52:06;;;;;;;9.40;6.15;;;;;;;15.53;49.94;94473.53;5011729;28;20042;-83
2022/11/27 00:54:32;;;;;;;8.90;6.70;;;;;;;15.55;49.89;94465.66;5031420;28;20029;-83
2022/11/27 00:56:57;;;;;;;10.10;6.90;;;;;;;15.54;50.04;94472.31;5031605;28;20364;-82
2022/11/27 00:59:23;;;;;;;7.75;6.13;;;;;;;15.57;49.81;94476.88;5022691;28;20041;-83
2022/11/27 01:01:48;;;;;;;7.72;6.38;;;;;;;15.55;49.93;94473.81;5031421;28;20033;-84
2022/11/27 01:04:14;;;;;;;8.43;6.20;;;;;;;15.55;49.80;94470.34;5031290;28;20084;-83
2022/11/27 01:06:39;;;;;;;7.85;6.60;;;;;;;15.53;49.87;94468.09;5064454;28;20029;-85
2022/11/27 01:09:05;;;;;;;7.40;6.00;;;;;;;15.57;49.42;94471.41;5022661;28;20037;-84
2022/11/27 01:11:31;;;;;;;8.15;6.50;;;;;;;15.58;49.86;94464.00;5028032;28;20041;-82
2022/11/27 01:14:01;;;;;;;7.50;6.20;;;;;;;15.53;49.76;94464.59;5030195;28;20037;-84
2022/11/27 01:16:28;;;;;;;8.35;6.45;;;;;;;15.55;49.88;94470.34;5031765;28;20041;-87
2022/11/27 01:18:57;;;;;;;7.20;6.13;;;;;;;15.54;50.03;94475.03;5035292;28;20116;-83
2022/11/27 01:21:23;;;;;;;7.97;5.97;;;;;;;15.53;49.57;94465.34;5028691;28;20045;-83
2022/11/27 01:23:48;;;;;;;8.00;6.25;;;;;;;15.56;49.62;94463.72;5031641;28;20048;-82
2022/11/27 01:26:13;;;;;;;8.40;6.53;;;;;;;15.58;49.80;94462.03;5046309;28;20067;-83
2022/11/27 01:28:39;;;;;;;8.95;6.90;;;;;;;15.56;49.76;94455.53;5031617;28;20518;-83
2022/11/27 01:31:07;;;;;;;8.70;6.45;;;;;;;15.54;50.15;94461.41;5031054;28;20491;-83
2022/11/27 01:33:33;;;;;;;7.32;6.55;;;;;;;15.55;49.86;94454.75;5013764;28;20094;-84
2022/11/27 01:36:00;;;;;;;8.73;6.43;;;;;;;15.56;49.63;94450.84;5018419;28;20450;-83
2022/11/27 01:38:25;;;;;;;8.10;6.10;;;;;;;15.55;49.60;94452.03;5019372;28;20038;-84
2022/11/27 01:40:58;;;;;;;8.07;6.15;;;;;;;15.54;49.66;94447.03;5025842;28;20058;-84
2022/11/27 01:43:45;;;;;;;8.00;5.95;;;;;;;15.57;49.49;94454.31;5038960;28;20499;-83
2022/11/27 01:46:32;;;;;;;8.20;6.13;;;;;;;15.56;49.82;94450.84;5033028;28;20029;-85
2022/11/27 01:49:09;;;;;;;8.90;6.32;;;;;;;15.55;50.01;94451.25;5048498;28;20049;-84
2022/11/27 01:51:38;;;;;;;9.52;6.47;;;;;;;15.56;49.87;94450.06;5034444;28;20064;-83
2022/11/27 01:54:03;;;;;;;6.28;5.25;;;;;;;15.56;49.53;94433.72;5035785;28;20041;-83
2022/11/27 01:56:29;;;;;;;7.88;6.10;;;;;;;15.52;50.02;94439.31;5045841;28;20044;-83
2022/11/27 01:58:55;;;;;;;7.30;5.63;;;;;;;15.54;49.52;94433.41;5005079;28;20053;-84
2022/11/27 02:01:23;;;;;;;7.05;6.25;;;;;;;15.55;49.79;94434.91;5003620;28;20041;-84
2022/11/27 02:03:48;;;;;;;7.88;5.35;;;;;;;15.52;49.69;94439.31;5038763;28;20037;-83
2022/11/27 02:06:14;;;;;;;6.60;5.32;;;;;;;15.53;49.54;94431.91;5029600;28;20152;-84
2022/11/27 02:08:40;;;;;;;6.40;5.65;;;;;;;15.56;49.62;94431.00;5028347;28;20049;-84
2022/11/27 02:11:14;;;;;;;7.25;5.38;;;;;;;15.56;50.06;94428.28;5013061;28;20033;-83
2022/11/27 02:13:44;;;;;;;7.10;5.82;;;;;;;15.52;49.73;94419.50;5022699;28;20044;-84
2022/11/27 02:16:33;;;;;;;7.40;6.10;;;;;;;15.57;49.91;94416.16;5047543;28;20047;-82
2022/11/27 02:18:59;;;;;;;9.20;5.95;;;;;;;15.55;49.83;94415.84;5022979;28;20136;-83
2022/11/27 02:21:38;;;;;;;6.30;5.18;;;;;;;15.53;49.95;94415.56;5046846;28;20530;-83
2022/11/27 02:24:12;;;;;;;7.75;5.60;;;;;;;15.54;49.61;94409.63;5056193;28;20565;-82
2022/11/27 02:26:37;;;;;;;7.20;5.82;;;;;;;15.52;49.92;94395.72;5024718;28;20048;-85
2022/11/27 02:29:04;;;;;;;6.40;5.30;;;;;;;15.58;49.58;94402.06;5045111;28;20041;-83
2022/11/27 02:31:29;;;;;;;7.20;5.80;;;;;;;15.52;49.90;94403.91;5030441;28;20045;-82
2022/11/27 02:33:59;;;;;;;5.95;5.35;;;;;;;15.56;49.57;94406.47;5043601;28;20045;-87
2022/11/27 02:36:26;;;;;;;7.60;5.60;;;;;;;15.52;49.94;94408.59;5045568;28;20025;-83
2022/11/27 02:38:54;;;;;;;7.22;5.53;;;;;;;15.50;49.67;94409.06;5002777;28;20041;-85
2022/11/27 02:41:27;;;;;;;6.88;5.22;;;;;;;15.50;49.68;94403.63;5017426;28;20033;-83
2022/11/27 02:43:52;;;;;;;6.30;4.82;;;;;;;15.51;49.91;94410.56;5025176;28;20037;-84
2022/11/27 02:46:18;;;;;;;9.02;5.70;;;;;;;15.50;49.93;94400.13;5012725;28;20060;-83
2022/11/27 02:48:52;;;;;;;6.38;5.13;;;;;;;15.48;49.87;94395.16;5029674;28;20089;-86
2022/11/27 02:51:32;;;;;;;5.97;4.97;;;;;;;15.49;49.92;94393.19;5022025;28;20124;-83
2022/11/27 02:53:59;;;;;;;6.13;5.03;;;;;;;15.52;49.77;94392.25;5019004;28;20377;-83
2022/11/27 02:56:26;;;;;;;6.75;5.25;;;;;;;15.51;49.95;94388.00;5029134;28;20343;-84
2022/11/27 02:58:51;;;;;;;8.27;5.43;;;;;;;15.50;49.78;94383.78;5030033;28;20422;-84
2022/11/27 03:01:17;;;;;;;8.05;5.85;;;;;;;15.53;49.62;94394.50;5028046;28;20037;-83
2022/11/27 03:03:45;;;;;;;5.97;4.97;;;;;;;15.52;49.87;94392.25;5013146;28;20033;-83
2022/11/27 03:06:14;;;;;;;7.57;5.75;;;;;;;15.53;49.57;94386.31;5003499;28;20119;-85
2022/11/27 03:08:53;;;;;;;5.65;4.88;;;;;;;15.50;49.92;94387.25;5000489;28;20472;-83
2022/11/27 03:11:18;;;;;;;6.80;5.25;;;;;;;15.52;49.74;94384.81;5030104;28;20133;-83
2022/11/27 03:13:47;;;;;;;5.65;5.00;;;;;;;15.50;49.85;94389.22;5029815;28;20412;-83
2022/11/27 03:16:30;;;;;;;6.55;5.32;;;;;;;15.50;49.82;94383.78;5027904;28;20516;-82
2022/11/27 03:19:34;;;;;;;6.63;5.70;;;;;;;15.52;49.87;94386.78;5045734;28;20504;-85
2022/11/27 03:22:00;;;;;;;6.10;5.25;;;;;;;15.52;49.81;94382.09;5061315;28;20040;-84
2022/11/27 03:24:26;;;;;;;5.95;5.10;;;;;;;15.50;49.76;94387.25;5048774;28;20517;-83
2022/11/27 03:26:51;;;;;;;6.50;5.45;;;;;;;15.50;49.59;94387.25;5029591;28;20029;-83
2022/11/27 03:29:20;;;;;;;7.00;5.07;;;;;;;15.53;49.63;94388.31;5037559;28;20033;-84
2022/11/27 03:31:46;;;;;;;5.35;4.30;;;;;;;15.51;49.82;94383.31;5049288;28;20097;-82
2022/11/27 03:34:11;;;;;;;5.63;4.85;;;;;;;15.54;49.54;94387.09;5031878;28;20044;-83
2022/11/27 03:36:37;;;;;;;7.65;5.47;;;;;;;15.53;49.56;94380.88;5048825;28;20067;-83
2022/11/27 03:39:03;;;;;;;5.70;4.88;;;;;;;15.52;49.74;94386.78;5054408;28;20040;-83
2022/11/27 03:41:45;;;;;;;5.47;4.35;;;;;;;15.50;49.83;94383.78;5061615;28;20048;-83
2022/11/27 03:44:14;;;;;;;5.95;4.50;;;;;;;15.50;49.91;94379.09;5045220;28;20603;-84
2022/11/27 03:46:51;;;;;;;6.88;5.47;;;;;;;15.49;49.66;94383.03;5052556;28;20036;-83
2022/11/27 03:49:47;;;;;;;7.65;4.72;;;;;;;15.51;49.82;94382.56;5015312;28;20392;-83
2022/11/27 03:52:34;;;;;;;6.18;5.07;;;;;;;15.51;49.57;94371.66;5030596;28;20037;-85
2022/11/27 03:55:25;;;;;;;6.00;4.90;;;;;;;15.50;49.54;94373.63;5008796;28;20037;-83
2022/11/27 03:58:04;;;;;;;7.82;5.32;;;;;;;15.50;49.78;94375.59;5025228;28;20033;-82
2022/11/27 04:00:33;;;;;;;6.38;5.22;;;;;;;15.54;49.58;94370.72;5047054;28;20041;-83
2022/11/27 04:02:58;;;;;;;5.68;4.68;;;;;;;15.51;49.76;94368.94;5034456;28;20324;-84
2022/11/27 04:05:24;;;;;;;5.63;4.30;;;;;;;15.51;49.58;94361.50;5036260;28;20052;-82
2022/11/27 04:07:49;;;;;;;5.68;4.40;;;;;;;15.50;49.71;94364.72;5031980;28;20488;-83
2022/11/27 04:10:14;;;;;;;5.03;4.53;;;;;;;15.50;49.83;94361.97;5010238;28;20033;-84
2022/11/27 04:12:40;;;;;;;5.93;4.57;;;;;;;15.53;49.41;94359.06;5045318;28;20495;-82
2022/11/27 04:15:07;;;;;;;6.38;4.68;;;;;;;15.51;49.83;94363.50;5004467;28;20113;-83
2022/11/27 04:17:32;;;;;;;4.95;4.15;;;;;;;15.55;49.49;94372.25;5033431;28;20029;-83
2022/11/27 04:19:57;;;;;;;6.00;4.72;;;;;;;15.55;49.86;94367.53;5029010;28;20060;-83
2022/11/27 04:22:23;;;;;;;5.25;4.05;;;;;;;15.50;49.42;94359.25;5043892;28;20538;-84
2022/11/27 04:24:48;;;;;;;5.95;5.03;;;;;;;15.48;49.79;94364.41;5058603;28;20040;-83
2022/11/27 04:27:14;;;;;;;6.47;4.88;;;;;;;15.50;49.50;94368.19;5034098;28;20107;-82
2022/11/27 04:29:39;;;;;;;5.80;4.47;;;;;;;15.49;49.44;94349.56;5032601;28;20041;-83
2022/11/27 04:32:09;;;;;;;6.05;4.47;;;;;;;15.50;49.59;94351.84;5048216;28;20407;-85
2022/11/27 04:34:34;;;;;;;5.85;4.93;;;;;;;15.50;49.72;94357.28;5032406;28;20454;-82
2022/11/27 04:36:59;;;;;;;5.05;4.40;;;;;;;15.49;49.57;94357.75;5055830;28;20107;-83
2022/11/27 04:39:25;;;;;;;7.20;4.57;;;;;;;15.51;49.27;94360.75;5061217;28;20033;-83
2022/11/27 04:41:50;;;;;;;5.72;4.30;;;;;;;15.50;49.46;94356.53;5032162;28;20041;-84
2022/11/27 04:44:16;;;;;;;4.93;4.35;;;;;;;15.50;49.63;94360.00;5032310;28;20029;-82
2022/11/27 04:46:41;;;;;;;4.97;4.18;;;;;;;15.49;49.50;94346.84;5029821;28;20044;-83
2022/11/27 04:49:07;;;;;;;7.35;4.43;;;;;;;15.49;49.67;94353.06;5031784;28;20451;-84
2022/11/27 04:51:33;;;;;;;5.93;4.22;;;;;;;15.49;49.29;94352.31;5015848;28;20072;-83
2022/11/27 04:53:58;;;;;;;5.85;4.13;;;;;;;15.50;49.39;94351.09;5028020;28;20542;-84
2022/11/27 04:56:24;;;;;;;5.85;4.60;;;;;;;15.47;49.68;94350.03;5031360;28;20078;-83
2022/11/27 04:58:49;;;;;;;5.65;4.30;;;;;;;15.51;49.63;94350.63;5018298;28;20029;-84
2022/11/27 05:01:15;;;;;;;5.55;4.65;;;;;;;15.50;49.36;94342.91;5030905;28;20044;-84
2022/11/27 05:03:40;;;;;;;4.25;3.85;;;;;;;15.52;49.32;94349.41;5031617;28;20163;-83
2022/11/27 05:06:06;;;;;;;6.68;4.60;;;;;;;15.49;49.75;94347.59;5031819;28;20037;-84
2022/11/27 05:08:32;;;;;;;4.90;4.03;;;;;;;15.48;49.69;94350.78;5051477;28;20092;-82
2022/11/27 05:11:06;;;;;;;6.10;4.38;;;;;;;15.48;49.67;94348.81;5035640;28;20064;-83
2022/11/27 05:13:31;;;;;;;5.53;4.43;;;;;;;15.51;49.29;94349.88;5047192;28;20052;-84
2022/11/27 05:15:57;;;;;;;5.30;4.53;;;;;;;15.48;49.72;94346.09;5048788;28;20044;-83
2022/11/27 05:18:22;;;;;;;5.72;4.40;;;;;;;15.47;49.51;94341.13;5017078;28;20083;-83
2022/11/27 05:20:58;;;;;;;4.78;3.95;;;;;;;15.50;49.57;94332.00;5051178;28;20041;-86
2022/11/27 05:23:23;;;;;;;5.28;4.00;;;;;;;15.46;49.31;94340.38;5019919;28;20140;-84
2022/11/27 05:25:49;;;;;;;6.22;4.00;;;;;;;15.47;49.34;94341.13;5011999;28;20046;-87
2022/11/27 05:28:14;;;;;;;4.50;3.78;;;;;;;15.48;49.62;94334.44;5019949;28;20034;-83
2022/11/27 05:30:39;;;;;;;5.43;4.28;;;;;;;15.48;49.53;94329.75;5007669;28;20407;-83
2022/11/27 05:33:05;;;;;;;5.43;3.92;;;;;;;15.50;49.32;94340.19;5014084;28;20041;-83
2022/11/27 05:35:30;;;;;;;4.88;4.03;;;;;;;15.50;49.62;94345.63;5051146;28;20055;-87
2022/11/27 05:37:56;;;;;;;5.00;3.97;;;;;;;15.51;49.35;94344.41;5033732;28;20037;-83
2022/11/27 05:40:21;;;;;;;5.07;4.25;;;;;;;15.47;49.39;94339.16;5032828;28;20037;-85
2022/11/27 05:42:46;;;;;;;6.10;4.07;;;;;;;15.46;49.23;94339.63;5049143;28;20040;-83
2022/11/27 05:45:12;;;;;;;4.53;3.67;;;;;;;15.48;49.21;94346.09;5042354;28;20443;-85
2022/11/27 05:47:37;;;;;;;5.90;4.32;;;;;;;15.51;49.51;94342.44;5011376;28;20034;-83
2022/11/27 05:50:03;;;;;;;4.93;3.90;;;;;;;15.47;49.51;94335.66;5023247;28;20026;-84
2022/11/27 05:52:28;;;;;;;4.30;3.65;;;;;;;15.49;49.24;94336.72;5031066;28;20029;-83
2022/11/27 05:54:55;;;;;;;4.65;3.50;;;;;;;15.50;49.55;94332.00;5010518;28;20433;-82
2022/11/27 05:57:20;;;;;;;4.50;3.42;;;;;;;15.51;49.17;94334.25;5010432;28;20045;-83
2022/11/27 05:59:46;;;;;;;4.35;3.72;;;;;;;15.52;49.25;94335.03;5038345;28;20055;-83
2022/11/27 06:02:11;;;;;;;5.38;3.80;;;;;;;15.53;49.21;94331.06;5049978;28;20383;-83
2022/11/27 06:04:36;;;;;;;5.28;3.70;;;;;;;15.51;49.61;94341.69;5047387;28;20036;-83
2022/11/27 06:07:02;;;;;;;5.15;3.55;;;;;;;15.54;49.33;94349.69;5030733;28;20511;-83
2022/11/27 06:09:27;;;;;;;4.05;3.58;;;;;;;15.48;49.36;94339.91;5023633;28;20052;-83
2022/11/27 06:11:53;;;;;;;5.10;3.95;;;;;;;15.47;49.60;94344.59;5046079;28;20041;-83
2022/11/27 06:14:18;;;;;;;5.70;4.05;;;;;;;15.53;49.34;94341.97;5047709;28;20110;-84
2022/11/27 06:16:43;;;;;;;4.95;4.00;;;;;;;15.47;49.66;94350.03;5032420;28;20127;-85
2022/11/27 06:19:09;;;;;;;5.10;3.67;;;;;;;15.48;49.62;94332.47;5032235;28;20037;-83
2022/11/27 06:21:34;;;;;;;4.82;3.50;;;;;;;15.49;49.78;94350.34;5048088;28;20480;-83
2022/11/27 06:24:00;;;;;;;7.18;4.43;;;;;;;15.51;49.47;94347.91;5066625;28;20047;-82
2022/11/27 06:26:27;;;;;;;5.93;4.07;;;;;;;15.51;49.30;94355.31;5050723;28;20412;-84
2022/11/27 06:28:52;;;;;;;5.65;4.25;;;;;;;15.48;49.50;94356.25;5035779;28;20032;-84
2022/11/27 06:31:20;;;;;;;4.88;4.03;;;;;;;15.48;49.13;94353.53;5010978;28;20046;-83
2022/11/27 06:33:46;;;;;;;5.13;3.75;;;;;;;15.47;49.30;94360.94;5016659;28;20128;-83
2022/11/27 06:36:12;;;;;;;5.30;3.65;;;;;;;15.48;49.01;94358.97;5032866;28;20151;-83
2022/11/27 06:38:37;;;;;;;6.40;4.13;;;;;;;15.47;49.24;94352.03;5032994;28;20031;-83
2022/11/27 06:41:08;;;;;;;5.43;4.10;;;;;;;15.53;49.50;94355.59;5031863;28;20059;-83
2022/11/27 06:43:34;;;;;;;4.18;3.25;;;;;;;15.49;49.11;94355.78;5033760;28;20117;-83
2022/11/27 06:45:59;;;;;;;5.28;4.05;;;;;;;15.50;49.52;94353.81;5045902;28;20041;-83
2022/11/27 06:48:25;;;;;;;5.13;3.78;;;;;;;15.46;49.45;94353.22;5029992;28;20313;-85
2022/11/27 06:50:50;;;;;;;4.82;3.67;;;;;;;15.47;49.55;94349.28;5024314;28;20033;-84
2022/11/27 06:53:16;;;;;;;6.05;4.28;;;;;;;15.49;49.50;94352.31;5021150;28;20111;-83
2022/11/27 06:55:41;;;;;;;4.68;3.40;;;;;;;15.51;49.10;94344.41;5032166;28;20086;-85
2022/11/27 06:58:06;;;;;;;5.15;3.70;;;;;;;15.48;48.97;94348.06;5049892;28;20028;-83
2022/11/27 07:00:33;;;;;;;3.45;2.88;;;;;;;15.47;49.63;94338.41;5045296;28;20039;-85
2022/11/27 07:02:58;;;;;;;4.57;3.42;;;;;;;15.46;49.04;94340.38;5045861;28;20411;-85
2022/11/27 07:05:24;;;;;;;4.22;3.60;;;;;;;15.49;48.87;94336.72;5034468;28;20040;-82
2022/11/27 07:07:49;;;;;;;5.10;3.88;;;;;;;15.49;49.08;94336.72;5065100;28;20033;-82
2022/11/27 07:10:15;;;;;;;4.47;3.53;;;;;;;15.47;49.07;94330.22;5044169;28;20033;-83
2022/11/27 07:12:40;;;;;;;3.72;3.13;;;;;;;15.51;49.01;94336.25;5029815;28;20413;-83
2022/11/27 07:15:06;;;;;;;5.00;3.78;;;;;;;15.50;49.48;94337.47;5030772;28;20032;-85
2022/11/27 07:17:32;;;;;;;5.07;3.85;;;;;;;15.49;49.10;94325.81;5049703;28;20035;-83
2022/11/27 07:19:57;;;;;;;4.90;3.60;;;;;;;15.52;49.02;94335.03;5023594;28;20038;-82
2022/11/27 07:22:22;;;;;;;4.22;3.40;;;;;;;15.48;48.94;94335.19;5026628;28;20049;-83
2022/11/27 07:24:48;;;;;;;6.03;3.58;;;;;;;15.48;49.17;94327.03;5049016;28;20422;-82
2022/11/27 07:27:13;;;;;;;3.63;2.88;;;;;;;15.51;48.80;94334.25;5039300;28;20040;-83
2022/11/27 07:29:39;;;;;;;3.78;2.97;;;;;;;15.51;48.79;94328.06;5049166;28;20040;-83
2022/11/27 07:32:04;;;;;;;3.97;3.33;;;;;;;15.53;49.00;94334.56;5039991;28;20032;-83
2022/11/27 07:34:29;;;;;;;3.80;3.08;;;;;;;15.51;49.20;94341.69;5037279;28;20033;-85
2022/11/27 07:36:55;;;;;;;4.47;3.40;;;;;;;15.50;48.89;94338.22;5032476;28;20048;-83
2022/11/27 07:39:20;;;;;;;4.32;3.25;;;;;;;15.48;48.92;94331.72;5051378;28;20036;-82
2022/11/27 07:41:46;;;;;;;5.45;3.40;;;;;;;15.51;49.02;94328.81;5045570;28;20059;-84
2022/11/27 07:44:11;;;;;;;4.53;3.25;;;;;;;15.51;48.84;94328.06;5015433;28;20502;-83
2022/11/27 07:46:36;;;;;;;3.75;3.03;;;;;;;15.52;48.78;94324.88;5034316;28;20483;-85
2022/11/27 07:49:02;;;;;;;3.35;2.80;;;;;;;15.54;48.85;94325.16;5012929;28;20055;-83
2022/11/27 07:51:28;;;;;;;4.32;3.40;;;;;;;15.53;49.05;94317.44;5062623;28;20044;-83
2022/11/27 07:53:53;;;;;;;3.83;3.13;;;;;;;15.52;49.05;94313.22;5065605;28;20043;-85
2022/11/27 07:56:19;;;;;;;4.35;3.47;;;;;;;15.53;49.05;94310.03;5063825;28;20525;-83
2022/11/27 07:58:44;;;;;;;4.95;3.50;;;;;;;15.52;48.93;94316.69;5048984;28;20041;-86
2022/11/27 08:01:12;;;;;;;4.47;3.70;;;;;;;15.54;48.63;94299.88;5057464;28;20139;-83
2022/11/27 08:03:37;;;;;;;4.03;2.92;;;;;;;15.58;48.55;94314.09;5075966;28;20057;-85
2022/11/27 08:06:03;;;;;;;4.28;2.80;;;;;;;15.55;48.71;94318.47;5051112;28;20028;-85
2022/11/27 08:08:28;;;;;;;3.78;3.03;;;;;;;15.52;48.92;94321.41;5064216;28;20048;-82
2022/11/27 08:10:54;;;;;;;3.75;3.30;;;;;;;15.55;48.84;94312.28;5031165;28;20035;-84
2022/11/27 08:13:19;;;;;;;4.65;2.88;;;;;;;15.56;49.17;94319.28;5045459;28;20067;-83
2022/11/27 08:15:45;;;;;;;4.30;3.53;;;;;;;15.54;49.08;94319.72;5029755;28;20041;-82
2022/11/27 08:18:10;;;;;;;4.32;3.70;;;;;;;15.54;49.13;94327.13;5027616;28;20040;-84
2022/11/27 08:20:36;;;;;;;5.35;3.63;;;;;;;15.54;48.70;94318.94;5014865;28;20033;-83
2022/11/27 08:23:01;;;;;;;5.22;3.47;;;;;;;15.56;48.64;94322.00;5000565;28;20632;-83
2022/11/27 08:25:27;;;;;;;3.70;2.78;;;;;;;15.56;48.99;94324.72;5043475;28;20076;-85
2022/11/27 08:27:52;;;;;;;4.57;3.25;;;;;;;15.56;48.65;94325.47;5043411;28;20052;-82
2022/11/27 08:30:18;;;;;;;3.58;3.13;;;;;;;15.53;49.08;94318.19;4994147;28;20041;-83
2022/11/27 08:32:43;;;;;;;3.92;3.20;;;;;;;15.58;48.59;94314.09;5013804;28;20059;-83
2022/11/27 08:35:08;;;;;;;4.05;3.25;;;;;;;15.58;48.96;94311.38;5030011;28;20041;-82
2022/11/27 08:37:34;;;;;;;4.85;3.22;;;;;;;15.59;48.89;94299.97;5012734;28;20079;-83
2022/11/27 08:39:59;;;;;;;5.43;3.80;;;;;;;15.60;48.82;94301.47;5042223;28;20036;-82
2022/11/27 08:42:24;;;;;;;4.50;3.40;;;;;;;15.59;49.08;94307.44;5048249;28;20041;-83
2022/11/27 08:44:50;;;;;;;4.22;3.40;;;;;;;15.60;48.70;94306.94;5049428;28;20024;-84
2022/11/27 08:47:15;;;;;;;4.03;3.17;;;;;;;15.60;48.84;94298.00;5068454;28;20049;-86
2022/11/27 08:49:42;;;;;;;4.15;2.95;;;;;;;15.62;48.76;94298.28;5032541;28;20036;-83
2022/11/27 08:52:07;;;;;;;4.15;2.50;;;;;;;15.61;48.46;94291.34;5042144;28;20040;-83
2022/11/27 08:54:33;;;;;;;4.03;3.15;;;;;;;15.66;48.76;94305.06;5064760;28;20040;-83
2022/11/27 08:56:58;;;;;;;4.05;3.03;;;;;;;15.63;48.34;94294.34;5044421;28;20047;-82
2022/11/27 08:59:24;;;;;;;4.22;3.13;;;;;;;15.63;48.45;94295.09;5067574;28;20032;-82
2022/11/27 09:01:49;;;;;;;4.00;2.95;;;;;;;15.65;48.58;94298.09;5085171;28;20085;-82
2022/11/27 09:04:14;;;;;;;4.60;3.42;;;;;;;15.63;48.64;94286.16;5062484;28;20047;-82
2022/11/27 09:06:40;;;;;;;3.28;2.53;;;;;;;15.63;48.65;94275.25;5058584;28;20040;-86
2022/11/27 09:09:05;;;;;;;3.30;2.80;;;;;;;15.63;48.94;94267.09;5051897;28;20118;-83
2022/11/27 09:11:31;;;;;;;2.28;1.95;;;;;;;15.64;48.40;94266.63;5076922;28;20135;-87
2022/11/27 09:14:00;;;;;;;4.55;2.72;;;;;;;15.68;48.65;94266.44;5080378;28;20048;-85
2022/11/27 09:16:26;;;;;;;2.85;2.33;;;;;;;15.67;48.69;94265.69;5068634;28;20591;-83
2022/11/27 09:18:53;;;;;;;3.75;3.00;;;;;;;15.66;48.72;94266.16;5061173;28;20036;-83
2022/11/27 09:21:20;;;;;;;3.38;2.63;;;;;;;15.67;48.31;94260.22;5054427;28;20116;-82
2022/11/27 09:23:45;;;;;;;3.58;3.05;;;;;;;15.63;48.66;94267.84;5070954;28;20040;-84
2022/11/27 09:26:13;;;;;;;4.78;3.22;;;;;;;15.66;48.46;94263.44;5071013;28;20028;-84
2022/11/27 09:28:39;;;;;;;3.47;2.83;;;;;;;15.66;48.94;94258.72;5087324;28;20032;-85
2022/11/27 09:31:05;;;;;;;4.35;3.17;;;;;;;15.72;48.46;94258.81;5084438;28;20233;-83
2022/11/27 09:33:32;;;;;;;4.93;3.40;;;;;;;15.68;48.79;94250.06;5034152;28;20032;-82
2022/11/27 09:36:03;;;;;;;4.25;2.90;;;;;;;15.67;48.89;94241.16;5053260;28;20115;-83
2022/11/27 09:38:29;;;;;;;4.45;3.28;;;;;;;15.68;48.71;94239.94;5071140;28;20126;-83
2022/11/27 09:40:57;;;;;;;4.53;3.10;;;;;;;15.70;48.80;94245.66;5059069;28;20040;-84
2022/11/27 09:43:27;;;;;;;4.15;2.65;;;;;;;15.71;48.35;94235.50;5033859;28;20051;-83
2022/11/27 09:45:54;;;;;;;4.95;3.60;;;;;;;15.70;48.78;94239.47;5068614;28;20063;-84
2022/11/27 09:48:22;;;;;;;3.83;2.83;;;;;;;15.67;48.83;94243.13;5070614;28;20048;-83
2022/11/27 09:50:49;;;;;;;4.45;3.28;;;;;;;15.69;48.61;94244.16;5059704;28;20513;-83
2022/11/27 09:53:32;;;;;;;4.30;3.42;;;;;;;15.68;48.81;94236.44;5048492;28;20526;-84
2022/11/27 09:55:58;;;;;;;3.28;2.60;;;;;;;15.70;48.82;94244.91;5046888;28;20032;-83
2022/11/27 09:58:26;;;;;;;3.08;2.53;;;;;;;15.70;49.08;94240.22;5067078;28;20081;-83
2022/11/27 10:00:52;;;;;;;5.22;2.97;;;;;;;15.73;48.65;94239.25;5069178;28;20036;-84
2022/11/27 10:03:23;;;;;;;3.85;2.90;;;;;;;15.73;48.99;94228.38;5066717;28;20040;-84
2022/11/27 10:06:04;;;;;;;3.75;2.83;;;;;;;15.73;48.72;94238.50;5049928;28;20115;-83
2022/11/27 10:08:32;;;;;;;4.93;3.72;;;;;;;15.76;48.72;94226.66;5068322;28;20067;-86
2022/11/27 10:11:06;;;;;;;4.75;3.17;;;;;;;15.68;48.61;94222.81;5034554;28;20029;-83
2022/11/27 10:13:40;;;;;;;4.72;3.33;;;;;;;15.74;48.66;94227.13;5042302;28;20032;-84
2022/11/27 10:16:13;;;;;;;3.47;2.63;;;;;;;15.70;48.83;94229.31;5045235;28;20065;-83
2022/11/27 10:18:50;;;;;;;3.72;3.05;;;;;;;15.71;48.53;94224.59;5080905;28;20087;-85
2022/11/27 10:21:34;;;;;;;5.10;3.30;;;;;;;15.72;48.92;94207.03;5016872;28;20116;-83
2022/11/27 10:24:18;;;;;;;3.33;3.03;;;;;;;15.72;48.84;94204.31;5044266;28;20148;-83
2022/11/27 10:26:47;;;;;;;4.72;3.42;;;;;;;15.69;49.04;94197.81;5029877;28;20041;-83
2022/11/27 10:29:37;;;;;;;3.72;2.40;;;;;;;15.69;48.87;94191.63;5063822;28;20068;-83
2022/11/27 10:32:12;;;;;;;3.22;2.92;;;;;;;15.67;48.92;94191.34;5067939;28;20098;-86
2022/11/27 10:34:43;;;;;;;3.67;3.25;;;;;;;15.71;48.53;94192.66;5050021;28;20521;-83
2022/11/27 10:37:22;;;;;;;4.15;3.40;;;;;;;15.70;48.97;94188.41;5060035;28;20138;-84
2022/11/27 10:39:49;;;;;;;3.95;3.25;;;;;;;15.71;48.77;94178.25;5068210;28;20036;-83
2022/11/27 10:42:19;;;;;;;4.13;3.40;;;;;;;15.71;48.81;94172.81;5068993;28;20071;-84
2022/11/27 10:44:48;;;;;;;3.80;2.80;;;;;;;15.71;48.97;94165.38;5085883;28;20060;-83
2022/11/27 10:47:13;;;;;;;3.58;3.13;;;;;;;15.70;48.82;94163.13;5049328;28;20040;-83
2022/11/27 10:49:39;;;;;;;4.70;2.85;;;;;;;15.68;48.76;94160.13;5049769;28;20048;-85
2022/11/27 10:52:05;;;;;;;4.32;3.17;;;;;;;15.68;48.97;94160.88;5049063;28;20359;-84
2022/11/27 10:54:33;;;;;;;3.80;2.88;;;;;;;15.70;48.84;94144.81;5049772;28;20044;-83
2022/11/27 10:57:13;;;;;;;4.70;3.10;;;;;;;15.72;49.13;94152.50;5042614;28;20112;-84
2022/11/27 10:59:43;;;;;;;3.75;2.75;;;;;;;15.70;48.81;94146.78;5060238;28;20044;-86
2022/11/27 11:02:26;;;;;;;4.13;3.35;;;;;;;15.71;48.93;94132.69;5059595;28;20036;-84
2022/11/27 11:04:51;;;;;;;4.40;3.03;;;;;;;15.70;48.78;94124.97;5085307;28;20028;-83
2022/11/27 11:07:25;;;;;;;5.55;3.35;;;;;;;15.70;49.19;94127.69;5080651;28;20165;-87
2022/11/27 11:09:52;;;;;;;3.55;2.85;;;;;;;15.70;49.03;94133.91;5086424;28;20092;-84
2022/11/27 11:12:20;;;;;;;4.28;3.17;;;;;;;15.68;48.81;94121.97;5085014;28;20286;-83
2022/11/27 11:14:53;;;;;;;3.65;2.80;;;;;;;15.70;48.74;94122.25;5070270;28;20028;-83
2022/11/27 11:17:26;;;;;;;3.80;3.00;;;;;;;15.69;49.09;94129.69;5040760;28;20040;-83
2022/11/27 11:19:52;;;;;;;2.95;2.30;;;;;;;15.73;48.74;94124.03;5045092;28;20495;-84
2022/11/27 11:22:18;;;;;;;4.00;2.75;;;;;;;15.74;48.77;94123.56;5051870;28;20047;-83
2022/11/27 11:24:47;;;;;;;3.75;2.83;;;;;;;15.71;49.14;94123.75;5049254;28;20043;-85
2022/11/27 11:27:22;;;;;;;3.72;2.70;;;;;;;15.70;48.83;94124.97;5041706;28;20048;-83
2022/11/27 11:29:52;;;;;;;3.35;2.85;;;;;;;15.71;49.00;94124.50;5068104;28;20093;-83
2022/11/27 11:32:26;;;;;;;4.30;3.05;;;;;;;15.73;48.89;94124.78;5043173;28;20590;-84
2022/11/27 11:35:08;;;;;;;3.83;2.85;;;;;;;15.72;48.74;94122.53;5048962;28;20040;-83
2022/11/27 11:37:34;;;;;;;3.78;2.65;;;;;;;15.72;49.06;94114.34;5068729;28;20043;-84